Stations météo

réclame
Mon MeteoGroup
Lampedusa, Italie (16490): Température de l'air & dewpoint: 19.05.2018 12:00:00 - 25.05.2018 12:00:00 (CEST)Lampedusa, Italie (16490): Vitesse du vent: 19.05.2018 12:00:00 - 25.05.2018 12:00:00 (CEST)Lampedusa, Italie (16490): Direction du vent: 19.05.2018 12:00:00 - 25.05.2018 12:00:00 (CEST)Lampedusa, Italie (16490): visibility: 19.05.2018 12:00:00 - 25.05.2018 12:00:00 (CEST)
Date & Time tt [°C] td [°C] ff [km/h] ff [knt] dd vv [km]
25.05.2018 12:00:00 23,0 14,0 11 6 WNW 10
25.05.2018 11:00:00 23,0 14,0 0 0 N 10
25.05.2018 10:00:00 22,0 17,0 15 8 W 10
25.05.2018 09:00:00 21,0 17,0 11 6 W 10
25.05.2018 08:00:00 20,0 16,0 8 4 WSW 10
25.05.2018 07:00:00 18,0 16,0 5 3 W 10
25.05.2018 06:00:00 18,0 17,0 9 5 NW 10
25.05.2018 05:00:00 - - - - - -
25.05.2018 04:00:00 - - - - - -
25.05.2018 03:00:00 - - - - - -
25.05.2018 02:00:00 - - - - - -
25.05.2018 01:00:00 - - - - - -
25.05.2018 00:00:00 - - - - - -
24.05.2018 23:00:00 - - - - - -
24.05.2018 22:00:00 19,0 15,0 2 1 - 10
24.05.2018 21:00:00 20,0 16,0 8 4 NNW 10
24.05.2018 20:00:00 21,0 15,0 11 6 NNW 10
24.05.2018 19:00:00 22,0 15,0 13 7 N 10
24.05.2018 18:00:00 21,0 16,0 13 7 N 10
24.05.2018 17:00:00 22,0 16,0 15 8 N 10
24.05.2018 16:00:00 22,0 15,0 11 6 N 10
24.05.2018 15:00:00 22,0 16,0 15 8 N 10
24.05.2018 14:00:00 22,0 16,0 13 7 N 10
24.05.2018 13:00:00 20,0 17,0 13 7 NNE 10
24.05.2018 12:00:00 20,0 17,0 11 6 N 10
24.05.2018 11:00:00 21,0 17,0 15 8 N 10
24.05.2018 10:00:00 20,0 16,0 11 6 N 10
24.05.2018 09:00:00 20,0 17,0 9 5 NNW 10
24.05.2018 08:00:00 19,0 17,0 15 8 N 10
24.05.2018 07:00:00 18,0 17,0 8 4 NNW 10
24.05.2018 06:00:00 18,0 17,0 18 10 N 10
24.05.2018 05:00:00 - - - - - -
24.05.2018 04:00:00 - - - - - -
24.05.2018 03:00:00 - - - - - -
24.05.2018 02:00:00 - - - - - -
24.05.2018 01:00:00 - - - - - -
24.05.2018 00:00:00 - - - - - -
23.05.2018 23:00:00 - - - - - -
23.05.2018 22:00:00 19,0 16,0 9 5 N 10
23.05.2018 21:00:00 19,0 16,0 9 5 N 10
23.05.2018 20:00:00 20,0 16,0 8 4 NNW 10
23.05.2018 19:00:00 20,0 16,0 16 9 N 10
23.05.2018 18:00:00 21,0 15,0 18 10 N 10
23.05.2018 17:00:00 22,0 15,0 13 7 NW 10
23.05.2018 16:00:00 21,0 15,0 22 12 NW 10
23.05.2018 15:00:00 22,0 15,0 21 11 WNW 10
23.05.2018 14:00:00 21,0 15,0 18 10 NW 10
23.05.2018 13:00:00 21,0 15,0 15 8 NW 10
23.05.2018 12:00:00 21,0 16,0 21 11 NNW 10
23.05.2018 11:00:00 20,0 16,0 24 13 NW 10
23.05.2018 10:00:00 20,0 16,0 21 11 NW 10
23.05.2018 09:00:00 19,0 16,0 16 9 NW 10
23.05.2018 08:00:00 18,0 16,0 18 10 NNW 10
23.05.2018 07:00:00 18,0 16,0 16 9 NNW 10
23.05.2018 06:00:00 18,0 16,0 22 12 NNW 10
23.05.2018 05:00:00 - - - - - -
23.05.2018 04:00:00 - - - - - -
23.05.2018 03:00:00 18,0 17,0 22 12 N 10
23.05.2018 02:00:00 - - - - - -
23.05.2018 01:00:00 - - - - - -
23.05.2018 00:00:00 - - - - - -
22.05.2018 23:00:00 - - - - - -
22.05.2018 22:00:00 - - - - - -
22.05.2018 21:00:00 19,0 19,0 16 9 ENE 8
22.05.2018 20:00:00 20,0 19,0 15 8 NNW 9
22.05.2018 19:00:00 20,0 19,0 18 10 N 8
22.05.2018 18:00:00 20,0 19,0 22 12 NNE 8
22.05.2018 17:00:00 21,0 19,0 21 11 NNE 8
22.05.2018 16:00:00 21,0 19,0 18 10 N 8
22.05.2018 15:00:00 21,0 18,0 18 10 N 10
22.05.2018 14:00:00 22,0 17,0 13 7 NNE 10
22.05.2018 13:00:00 21,0 17,0 11 6 NNE 9
22.05.2018 12:00:00 21,0 17,0 16 9 N 9
22.05.2018 11:00:00 20,0 18,0 9 5 E 10
22.05.2018 10:00:00 20,0 17,0 8 4 E 9
22.05.2018 09:00:00 20,0 17,0 11 6 E 9
22.05.2018 08:00:00 20,0 17,0 11 6 E 9
22.05.2018 07:00:00 19,0 19,0 15 8 E 8
22.05.2018 06:00:00 19,0 19,0 13 7 E 6
22.05.2018 05:00:00 - - - - - -
22.05.2018 04:00:00 - - - - - -
22.05.2018 03:00:00 - - - - - -
22.05.2018 02:00:00 - - - - - -
22.05.2018 01:00:00 - - - - - -
22.05.2018 00:00:00 - - - - - -
21.05.2018 23:00:00 - - - - - -
21.05.2018 22:00:00 19,0 19,0 16 9 E 10
21.05.2018 21:00:00 19,0 19,0 16 9 E 10
21.05.2018 20:00:00 20,0 19,0 11 6 E 10
21.05.2018 19:00:00 20,0 19,0 22 12 E 10
21.05.2018 18:00:00 22,0 19,0 22 12 ESE 10
21.05.2018 17:00:00 22,0 19,0 16 9 ESE 10
21.05.2018 16:00:00 22,0 19,0 24 13 E 10
21.05.2018 15:00:00 21,0 18,0 22 12 E 10
21.05.2018 14:00:00 - - - - - -
21.05.2018 13:00:00 21,0 17,0 22 12 ENE 10
21.05.2018 12:00:00 21,0 17,0 18 10 ENE 10
21.05.2018 11:00:00 21,0 16,0 21 11 E 10
21.05.2018 10:00:00 21,0 17,0 16 9 ENE 10
21.05.2018 09:00:00 20,0 17,0 16 9 ENE 10
21.05.2018 08:00:00 20,0 17,0 15 8 NE 10
21.05.2018 07:00:00 19,0 17,0 18 10 NE 10
21.05.2018 06:00:00 19,0 16,0 22 12 NE 10
21.05.2018 05:00:00 - - - - - -
21.05.2018 04:00:00 - - - - - -
21.05.2018 03:00:00 - - - - - -
21.05.2018 02:00:00 - - - - - -
21.05.2018 01:00:00 - - - - - -
21.05.2018 00:00:00 - - - - - -
20.05.2018 23:00:00 - - - - - -
20.05.2018 22:00:00 19,0 17,0 24 13 NE 10
20.05.2018 21:00:00 19,0 17,0 24 13 NE 10
20.05.2018 20:00:00 20,0 17,0 22 12 NE 10
20.05.2018 19:00:00 20,0 17,0 22 12 NE 10
20.05.2018 18:00:00 21,0 17,0 24 13 NE 10
20.05.2018 17:00:00 21,0 16,0 24 13 NE 10
20.05.2018 16:00:00 22,0 16,0 22 12 NE 10
20.05.2018 15:00:00 21,0 17,0 24 13 NNE 10
20.05.2018 14:00:00 22,0 17,0 21 11 NNE 10
20.05.2018 13:00:00 21,0 17,0 21 11 NNE 10
20.05.2018 12:00:00 21,0 17,0 18 10 NNE 10
20.05.2018 11:00:00 20,0 17,0 18 10 NNE 10
20.05.2018 10:00:00 20,0 17,0 22 12 NE 10
20.05.2018 09:00:00 20,0 17,0 22 12 NE 10
20.05.2018 08:00:00 19,0 16,0 26 14 NNE 10
20.05.2018 07:00:00 19,0 16,0 26 14 NE 10
20.05.2018 06:00:00 18,0 17,0 24 13 NE 10
20.05.2018 05:00:00 - - - - - -
20.05.2018 04:00:00 - - - - - -
20.05.2018 03:00:00 - - - - - -
20.05.2018 02:00:00 - - - - - -
20.05.2018 01:00:00 - - - - - -
20.05.2018 00:00:00 - - - - - -
19.05.2018 23:00:00 - - - - - -
19.05.2018 22:00:00 19,0 17,0 21 11 ENE 10
19.05.2018 21:00:00 19,0 17,0 31 17 NE 10
19.05.2018 20:00:00 19,0 17,0 29 16 NE 10
19.05.2018 19:00:00 20,0 17,0 31 17 NNE 10
19.05.2018 18:00:00 20,0 17,0 34 18 NNE 10
19.05.2018 17:00:00 20,0 18,0 22 12 NNE 10
19.05.2018 16:00:00 21,0 17,0 28 15 NNE 10
19.05.2018 15:00:00 21,0 17,0 29 16 NNE 10
19.05.2018 14:00:00 21,0 17,0 28 15 NE 10
19.05.2018 13:00:00 21,0 17,0 29 16 NE 10
19.05.2018 12:00:00 21,0 17,0 28 15 NE 10

tt = Température de l'air
td = dewpoint
ff = Vitesse du vent
dd = Direction du vent
vv = visibility

stations d'obs. à proximité